sensor_id;sensor_type;location;lat;lon;timestamp;P1;durP1;ratioP1;P2;durP2;ratioP2
27744;SDS011;61387;48.112;8.616;2023-03-16T00:00:41;7.00;;;3.70;;
27744;SDS011;61387;48.112;8.616;2023-03-16T00:03:08;8.20;;;3.80;;
27744;SDS011;61387;48.112;8.616;2023-03-16T00:05:49;7.50;;;3.60;;
27744;SDS011;61387;48.112;8.616;2023-03-16T00:08:17;7.57;;;3.63;;
27744;SDS011;61387;48.112;8.616;2023-03-16T00:10:43;7.07;;;3.13;;
27744;SDS011;61387;48.112;8.616;2023-03-16T00:13:16;7.17;;;3.20;;
27744;SDS011;61387;48.112;8.616;2023-03-16T00:15:49;7.13;;;3.33;;
27744;SDS011;61387;48.112;8.616;2023-03-16T00:18:15;7.30;;;3.13;;
27744;SDS011;61387;48.112;8.616;2023-03-16T00:20:41;7.00;;;3.20;;
27744;SDS011;61387;48.112;8.616;2023-03-16T00:23:07;8.83;;;3.33;;
27744;SDS011;61387;48.112;8.616;2023-03-16T00:25:33;7.80;;;3.20;;
27744;SDS011;61387;48.112;8.616;2023-03-16T00:27:59;5.67;;;3.00;;
27744;SDS011;61387;48.112;8.616;2023-03-16T00:30:28;6.23;;;3.20;;
27744;SDS011;61387;48.112;8.616;2023-03-16T00:32:54;6.87;;;3.60;;
27744;SDS011;61387;48.112;8.616;2023-03-16T00:35:20;7.77;;;3.37;;
27744;SDS011;61387;48.112;8.616;2023-03-16T00:37:45;8.37;;;3.67;;
27744;SDS011;61387;48.112;8.616;2023-03-16T00:40:11;8.20;;;3.20;;
27744;SDS011;61387;48.112;8.616;2023-03-16T00:42:37;8.07;;;3.77;;
27744;SDS011;61387;48.112;8.616;2023-03-16T00:45:03;7.22;;;3.70;;
27744;SDS011;61387;48.112;8.616;2023-03-16T00:47:31;8.07;;;3.67;;
27744;SDS011;61387;48.112;8.616;2023-03-16T00:49:57;7.00;;;2.83;;
27744;SDS011;61387;48.112;8.616;2023-03-16T00:52:24;6.33;;;3.30;;
27744;SDS011;61387;48.112;8.616;2023-03-16T00:54:51;7.20;;;3.20;;
27744;SDS011;61387;48.112;8.616;2023-03-16T00:57:18;5.53;;;3.03;;
27744;SDS011;61387;48.112;8.616;2023-03-16T00:59:45;8.17;;;3.87;;
27744;SDS011;61387;48.112;8.616;2023-03-16T01:02:11;6.10;;;3.40;;
27744;SDS011;61387;48.112;8.616;2023-03-16T01:04:38;7.17;;;3.80;;
27744;SDS011;61387;48.112;8.616;2023-03-16T01:07:06;7.17;;;3.33;;
27744;SDS011;61387;48.112;8.616;2023-03-16T01:09:32;5.50;;;3.10;;
27744;SDS011;61387;48.112;8.616;2023-03-16T01:12:01;9.97;;;3.37;;
27744;SDS011;61387;48.112;8.616;2023-03-16T01:14:35;5.60;;;3.10;;
27744;SDS011;61387;48.112;8.616;2023-03-16T01:17:01;5.57;;;2.93;;
27744;SDS011;61387;48.112;8.616;2023-03-16T01:19:28;6.10;;;3.40;;
27744;SDS011;61387;48.112;8.616;2023-03-16T01:21:54;7.03;;;2.90;;
27744;SDS011;61387;48.112;8.616;2023-03-16T01:24:20;7.93;;;3.63;;
27744;SDS011;61387;48.112;8.616;2023-03-16T01:26:45;6.53;;;3.27;;
27744;SDS011;61387;48.112;8.616;2023-03-16T01:29:11;6.50;;;3.13;;
27744;SDS011;61387;48.112;8.616;2023-03-16T01:31:37;5.87;;;3.00;;
27744;SDS011;61387;48.112;8.616;2023-03-16T01:34:03;7.33;;;3.27;;
27744;SDS011;61387;48.112;8.616;2023-03-16T01:36:29;7.62;;;2.92;;
27744;SDS011;61387;48.112;8.616;2023-03-16T01:38:56;6.97;;;2.83;;
27744;SDS011;61387;48.112;8.616;2023-03-16T01:41:22;6.10;;;3.20;;
27744;SDS011;61387;48.112;8.616;2023-03-16T01:43:50;7.73;;;2.80;;
27744;SDS011;61387;48.112;8.616;2023-03-16T01:46:20;4.73;;;2.90;;
27744;SDS011;61387;48.112;8.616;2023-03-16T01:48:55;5.97;;;3.37;;
27744;SDS011;61387;48.112;8.616;2023-03-16T01:51:30;6.20;;;3.33;;
27744;SDS011;61387;48.112;8.616;2023-03-16T01:54:02;8.40;;;3.53;;
27744;SDS011;61387;48.112;8.616;2023-03-16T01:56:36;9.10;;;3.50;;
27744;SDS011;61387;48.112;8.616;2023-03-16T01:59:06;6.73;;;3.40;;
27744;SDS011;61387;48.112;8.616;2023-03-16T02:01:36;9.00;;;3.53;;
27744;SDS011;61387;48.112;8.616;2023-03-16T02:04:05;5.97;;;3.33;;
27744;SDS011;61387;48.112;8.616;2023-03-16T02:06:38;6.00;;;3.60;;
27744;SDS011;61387;48.112;8.616;2023-03-16T02:09:04;7.07;;;3.77;;
27744;SDS011;61387;48.112;8.616;2023-03-16T02:11:30;7.07;;;4.10;;
27744;SDS011;61387;48.112;8.616;2023-03-16T02:13:57;8.57;;;3.83;;
27744;SDS011;61387;48.112;8.616;2023-03-16T02:16:29;8.47;;;4.80;;
27744;SDS011;61387;48.112;8.616;2023-03-16T02:18:54;8.37;;;4.63;;
27744;SDS011;61387;48.112;8.616;2023-03-16T02:23:58;8.40;;;4.90;;
27744;SDS011;61387;48.112;8.616;2023-03-16T02:26:33;10.03;;;5.20;;
27744;SDS011;61387;48.112;8.616;2023-03-16T02:29:21;10.47;;;3.73;;
27744;SDS011;61387;48.112;8.616;2023-03-16T02:32:13;8.37;;;3.70;;
27744;SDS011;61387;48.112;8.616;2023-03-16T02:34:41;6.83;;;3.77;;
27744;SDS011;61387;48.112;8.616;2023-03-16T02:37:07;10.87;;;4.30;;
27744;SDS011;61387;48.112;8.616;2023-03-16T02:39:33;8.43;;;3.60;;
27744;SDS011;61387;48.112;8.616;2023-03-16T02:41:59;8.93;;;3.73;;
27744;SDS011;61387;48.112;8.616;2023-03-16T02:44:26;10.23;;;4.00;;
27744;SDS011;61387;48.112;8.616;2023-03-16T02:46:58;6.33;;;3.87;;
27744;SDS011;61387;48.112;8.616;2023-03-16T02:52:03;6.17;;;3.30;;
27744;SDS011;61387;48.112;8.616;2023-03-16T02:54:30;7.50;;;3.10;;
27744;SDS011;61387;48.112;8.616;2023-03-16T02:56:55;8.03;;;3.13;;
27744;SDS011;61387;48.112;8.616;2023-03-16T02:59:21;6.32;;;3.17;;
27744;SDS011;61387;48.112;8.616;2023-03-16T03:01:47;7.83;;;3.03;;
27744;SDS011;61387;48.112;8.616;2023-03-16T03:04:12;7.30;;;3.27;;
27744;SDS011;61387;48.112;8.616;2023-03-16T03:06:38;8.87;;;3.77;;
27744;SDS011;61387;48.112;8.616;2023-03-16T03:09:04;7.80;;;3.30;;
27744;SDS011;61387;48.112;8.616;2023-03-16T03:11:30;8.03;;;3.57;;
27744;SDS011;61387;48.112;8.616;2023-03-16T03:13:56;10.87;;;3.70;;
27744;SDS011;61387;48.112;8.616;2023-03-16T03:16:22;10.10;;;3.30;;
27744;SDS011;61387;48.112;8.616;2023-03-16T03:18:48;7.93;;;3.30;;
27744;SDS011;61387;48.112;8.616;2023-03-16T03:21:14;7.03;;;3.40;;
27744;SDS011;61387;48.112;8.616;2023-03-16T03:23:40;6.43;;;2.77;;
27744;SDS011;61387;48.112;8.616;2023-03-16T03:26:06;6.28;;;3.50;;
27744;SDS011;61387;48.112;8.616;2023-03-16T03:28:32;11.33;;;3.60;;
27744;SDS011;61387;48.112;8.616;2023-03-16T03:30:58;9.47;;;3.43;;
27744;SDS011;61387;48.112;8.616;2023-03-16T03:33:24;7.70;;;3.17;;
27744;SDS011;61387;48.112;8.616;2023-03-16T03:35:56;6.67;;;3.07;;
27744;SDS011;61387;48.112;8.616;2023-03-16T03:38:22;5.17;;;3.07;;
27744;SDS011;61387;48.112;8.616;2023-03-16T03:40:50;6.80;;;3.23;;
27744;SDS011;61387;48.112;8.616;2023-03-16T03:43:16;5.83;;;3.07;;
27744;SDS011;61387;48.112;8.616;2023-03-16T03:45:42;7.73;;;3.70;;
27744;SDS011;61387;48.112;8.616;2023-03-16T03:48:08;7.43;;;3.83;;
27744;SDS011;61387;48.112;8.616;2023-03-16T03:50:34;9.80;;;4.13;;
27744;SDS011;61387;48.112;8.616;2023-03-16T03:53:02;8.17;;;3.60;;
27744;SDS011;61387;48.112;8.616;2023-03-16T03:55:28;8.50;;;3.87;;
27744;SDS011;61387;48.112;8.616;2023-03-16T03:57:54;8.73;;;3.63;;
27744;SDS011;61387;48.112;8.616;2023-03-16T04:00:19;10.33;;;3.80;;
27744;SDS011;61387;48.112;8.616;2023-03-16T04:02:46;9.40;;;3.93;;
27744;SDS011;61387;48.112;8.616;2023-03-16T04:05:11;6.63;;;3.70;;
27744;SDS011;61387;48.112;8.616;2023-03-16T04:07:37;6.97;;;3.90;;
27744;SDS011;61387;48.112;8.616;2023-03-16T04:10:03;10.47;;;4.13;;
27744;SDS011;61387;48.112;8.616;2023-03-16T04:12:30;6.13;;;3.40;;
27744;SDS011;61387;48.112;8.616;2023-03-16T04:14:56;7.27;;;4.30;;
27744;SDS011;61387;48.112;8.616;2023-03-16T04:17:21;6.93;;;3.40;;
27744;SDS011;61387;48.112;8.616;2023-03-16T04:19:48;8.00;;;4.27;;
27744;SDS011;61387;48.112;8.616;2023-03-16T04:22:13;8.17;;;4.20;;
27744;SDS011;61387;48.112;8.616;2023-03-16T04:24:39;11.43;;;4.50;;
27744;SDS011;61387;48.112;8.616;2023-03-16T04:27:07;9.27;;;4.40;;
27744;SDS011;61387;48.112;8.616;2023-03-16T04:29:33;8.90;;;4.30;;
27744;SDS011;61387;48.112;8.616;2023-03-16T04:31:59;8.60;;;4.80;;
27744;SDS011;61387;48.112;8.616;2023-03-16T04:34:25;8.70;;;4.57;;
27744;SDS011;61387;48.112;8.616;2023-03-16T04:36:51;7.30;;;4.43;;
27744;SDS011;61387;48.112;8.616;2023-03-16T04:39:17;7.27;;;4.10;;
27744;SDS011;61387;48.112;8.616;2023-03-16T04:41:44;9.37;;;4.50;;
27744;SDS011;61387;48.112;8.616;2023-03-16T04:44:10;10.37;;;4.53;;
27744;SDS011;61387;48.112;8.616;2023-03-16T04:46:36;8.30;;;4.10;;
27744;SDS011;61387;48.112;8.616;2023-03-16T04:49:01;9.10;;;4.28;;
27744;SDS011;61387;48.112;8.616;2023-03-16T04:51:27;7.40;;;4.27;;
27744;SDS011;61387;48.112;8.616;2023-03-16T04:53:53;8.60;;;4.67;;
27744;SDS011;61387;48.112;8.616;2023-03-16T04:56:19;8.85;;;4.50;;
27744;SDS011;61387;48.112;8.616;2023-03-16T04:58:48;11.20;;;5.00;;
27744;SDS011;61387;48.112;8.616;2023-03-16T05:01:15;12.00;;;5.43;;
27744;SDS011;61387;48.112;8.616;2023-03-16T05:03:41;8.83;;;5.13;;
27744;SDS011;61387;48.112;8.616;2023-03-16T05:06:07;9.93;;;5.23;;
27744;SDS011;61387;48.112;8.616;2023-03-16T05:08:34;11.50;;;6.13;;
27744;SDS011;61387;48.112;8.616;2023-03-16T05:11:00;10.83;;;6.07;;
27744;SDS011;61387;48.112;8.616;2023-03-16T05:13:25;12.80;;;7.32;;
27744;SDS011;61387;48.112;8.616;2023-03-16T05:15:51;14.23;;;7.37;;
27744;SDS011;61387;48.112;8.616;2023-03-16T05:18:20;12.43;;;7.13;;
27744;SDS011;61387;48.112;8.616;2023-03-16T05:20:53;14.83;;;6.23;;
27744;SDS011;61387;48.112;8.616;2023-03-16T05:23:23;15.90;;;7.50;;
27744;SDS011;61387;48.112;8.616;2023-03-16T05:25:48;16.37;;;7.70;;
27744;SDS011;61387;48.112;8.616;2023-03-16T05:28:14;16.87;;;6.97;;
27744;SDS011;61387;48.112;8.616;2023-03-16T05:30:40;16.40;;;7.40;;
27744;SDS011;61387;48.112;8.616;2023-03-16T05:33:06;15.17;;;8.40;;
27744;SDS011;61387;48.112;8.616;2023-03-16T05:35:32;15.97;;;8.70;;
27744;SDS011;61387;48.112;8.616;2023-03-16T05:37:58;16.57;;;8.13;;
27744;SDS011;61387;48.112;8.616;2023-03-16T05:40:24;16.42;;;7.82;;
27744;SDS011;61387;48.112;8.616;2023-03-16T05:42:53;16.93;;;8.07;;
27744;SDS011;61387;48.112;8.616;2023-03-16T05:45:19;17.07;;;8.43;;
27744;SDS011;61387;48.112;8.616;2023-03-16T05:47:45;19.43;;;8.63;;
27744;SDS011;61387;48.112;8.616;2023-03-16T05:50:11;12.77;;;7.87;;
27744;SDS011;61387;48.112;8.616;2023-03-16T05:52:40;14.57;;;6.63;;
27744;SDS011;61387;48.112;8.616;2023-03-16T05:55:10;11.20;;;5.93;;
27744;SDS011;61387;48.112;8.616;2023-03-16T05:57:36;10.10;;;5.80;;
27744;SDS011;61387;48.112;8.616;2023-03-16T06:00:03;11.20;;;5.73;;
27744;SDS011;61387;48.112;8.616;2023-03-16T06:02:40;12.20;;;6.00;;
27744;SDS011;61387;48.112;8.616;2023-03-16T06:05:13;10.13;;;5.37;;
27744;SDS011;61387;48.112;8.616;2023-03-16T06:07:40;12.53;;;6.50;;
27744;SDS011;61387;48.112;8.616;2023-03-16T06:10:06;10.90;;;6.40;;
27744;SDS011;61387;48.112;8.616;2023-03-16T06:12:32;13.20;;;7.20;;
27744;SDS011;61387;48.112;8.616;2023-03-16T06:14:58;15.37;;;9.00;;
27744;SDS011;61387;48.112;8.616;2023-03-16T06:17:24;17.00;;;9.77;;
27744;SDS011;61387;48.112;8.616;2023-03-16T06:19:50;16.77;;;10.40;;
27744;SDS011;61387;48.112;8.616;2023-03-16T06:22:16;21.77;;;11.05;;
27744;SDS011;61387;48.112;8.616;2023-03-16T06:24:42;30.17;;;16.77;;
27744;SDS011;61387;48.112;8.616;2023-03-16T06:27:08;38.55;;;17.85;;
27744;SDS011;61387;48.112;8.616;2023-03-16T06:29:33;16.63;;;9.17;;
27744;SDS011;61387;48.112;8.616;2023-03-16T06:31:59;15.80;;;9.13;;
27744;SDS011;61387;48.112;8.616;2023-03-16T06:34:25;22.20;;;12.57;;
27744;SDS011;61387;48.112;8.616;2023-03-16T06:36:51;17.93;;;11.00;;
27744;SDS011;61387;48.112;8.616;2023-03-16T06:39:17;13.37;;;8.27;;
27744;SDS011;61387;48.112;8.616;2023-03-16T06:41:42;12.80;;;7.60;;
27744;SDS011;61387;48.112;8.616;2023-03-16T06:44:08;12.73;;;7.17;;
27744;SDS011;61387;48.112;8.616;2023-03-16T06:46:34;11.47;;;6.53;;
27744;SDS011;61387;48.112;8.616;2023-03-16T06:48:59;13.03;;;6.83;;
27744;SDS011;61387;48.112;8.616;2023-03-16T06:51:25;12.10;;;6.60;;
27744;SDS011;61387;48.112;8.616;2023-03-16T06:53:51;10.10;;;6.57;;
27744;SDS011;61387;48.112;8.616;2023-03-16T06:56:17;10.00;;;6.10;;
27744;SDS011;61387;48.112;8.616;2023-03-16T06:58:43;11.27;;;6.20;;
27744;SDS011;61387;48.112;8.616;2023-03-16T07:01:08;10.23;;;5.73;;
27744;SDS011;61387;48.112;8.616;2023-03-16T07:03:34;12.23;;;6.10;;
27744;SDS011;61387;48.112;8.616;2023-03-16T07:05:59;12.83;;;5.97;;
27744;SDS011;61387;48.112;8.616;2023-03-16T07:08:25;11.83;;;5.80;;
27744;SDS011;61387;48.112;8.616;2023-03-16T07:10:51;10.67;;;6.33;;
27744;SDS011;61387;48.112;8.616;2023-03-16T07:13:18;12.30;;;5.70;;
27744;SDS011;61387;48.112;8.616;2023-03-16T07:15:44;9.37;;;6.27;;
27744;SDS011;61387;48.112;8.616;2023-03-16T07:18:10;9.77;;;6.20;;
27744;SDS011;61387;48.112;8.616;2023-03-16T07:20:36;13.63;;;7.67;;
27744;SDS011;61387;48.112;8.616;2023-03-16T07:23:03;15.27;;;6.53;;
27744;SDS011;61387;48.112;8.616;2023-03-16T07:25:28;9.80;;;5.50;;
27744;SDS011;61387;48.112;8.616;2023-03-16T07:27:55;12.93;;;6.50;;
27744;SDS011;61387;48.112;8.616;2023-03-16T07:30:21;14.60;;;6.80;;
27744;SDS011;61387;48.112;8.616;2023-03-16T07:32:49;14.13;;;7.33;;
27744;SDS011;61387;48.112;8.616;2023-03-16T07:35:15;12.67;;;6.60;;
27744;SDS011;61387;48.112;8.616;2023-03-16T07:37:41;12.90;;;6.30;;
27744;SDS011;61387;48.112;8.616;2023-03-16T07:40:07;10.30;;;5.33;;
27744;SDS011;61387;48.112;8.616;2023-03-16T07:42:34;11.70;;;5.90;;
27744;SDS011;61387;48.112;8.616;2023-03-16T07:45:00;9.77;;;5.47;;
27744;SDS011;61387;48.112;8.616;2023-03-16T07:47:26;11.13;;;6.23;;
27744;SDS011;61387;48.112;8.616;2023-03-16T07:49:54;12.37;;;5.53;;
27744;SDS011;61387;48.112;8.616;2023-03-16T07:52:20;16.17;;;5.77;;
27744;SDS011;61387;48.112;8.616;2023-03-16T07:54:45;11.55;;;5.32;;
27744;SDS011;61387;48.112;8.616;2023-03-16T07:57:12;16.03;;;5.50;;
27744;SDS011;61387;48.112;8.616;2023-03-16T07:59:38;10.00;;;5.10;;
27744;SDS011;61387;48.112;8.616;2023-03-16T08:02:04;10.23;;;5.40;;
27744;SDS011;61387;48.112;8.616;2023-03-16T08:04:29;13.13;;;5.03;;
27744;SDS011;61387;48.112;8.616;2023-03-16T08:06:55;10.00;;;4.80;;
27744;SDS011;61387;48.112;8.616;2023-03-16T08:09:24;9.37;;;4.80;;
27744;SDS011;61387;48.112;8.616;2023-03-16T08:11:50;11.27;;;4.67;;
27744;SDS011;61387;48.112;8.616;2023-03-16T08:14:16;11.87;;;4.63;;
27744;SDS011;61387;48.112;8.616;2023-03-16T08:16:41;9.00;;;4.30;;
27744;SDS011;61387;48.112;8.616;2023-03-16T08:19:07;7.77;;;4.20;;
27744;SDS011;61387;48.112;8.616;2023-03-16T08:21:33;12.83;;;5.23;;
27744;SDS011;61387;48.112;8.616;2023-03-16T08:24:00;8.73;;;4.37;;
27744;SDS011;61387;48.112;8.616;2023-03-16T08:26:26;8.67;;;4.20;;
27744;SDS011;61387;48.112;8.616;2023-03-16T08:28:51;5.83;;;2.60;;
27744;SDS011;61387;48.112;8.616;2023-03-16T08:31:18;3.37;;;2.07;;
27744;SDS011;61387;48.112;8.616;2023-03-16T08:33:46;4.23;;;2.33;;
27744;SDS011;61387;48.112;8.616;2023-03-16T08:36:13;4.33;;;2.00;;
27744;SDS011;61387;48.112;8.616;2023-03-16T08:38:40;4.13;;;1.57;;
27744;SDS011;61387;48.112;8.616;2023-03-16T08:41:08;2.93;;;1.43;;
27744;SDS011;61387;48.112;8.616;2023-03-16T08:43:33;1.93;;;1.20;;
27744;SDS011;61387;48.112;8.616;2023-03-16T08:46:01;4.97;;;1.70;;
27744;SDS011;61387;48.112;8.616;2023-03-16T08:48:28;2.43;;;1.30;;
27744;SDS011;61387;48.112;8.616;2023-03-16T08:50:53;1.87;;;1.40;;
27744;SDS011;61387;48.112;8.616;2023-03-16T08:53:19;2.70;;;1.63;;
27744;SDS011;61387;48.112;8.616;2023-03-16T08:55:45;2.37;;;1.70;;
27744;SDS011;61387;48.112;8.616;2023-03-16T08:58:11;2.10;;;1.20;;
27744;SDS011;61387;48.112;8.616;2023-03-16T09:00:38;3.83;;;1.43;;
27744;SDS011;61387;48.112;8.616;2023-03-16T09:03:04;8.00;;;1.90;;
27744;SDS011;61387;48.112;8.616;2023-03-16T09:05:31;3.90;;;1.40;;
27744;SDS011;61387;48.112;8.616;2023-03-16T09:07:58;2.33;;;1.30;;
27744;SDS011;61387;48.112;8.616;2023-03-16T09:10:24;4.13;;;1.50;;
27744;SDS011;61387;48.112;8.616;2023-03-16T09:12:51;2.67;;;1.20;;
27744;SDS011;61387;48.112;8.616;2023-03-16T09:15:17;2.27;;;1.20;;
27744;SDS011;61387;48.112;8.616;2023-03-16T09:17:45;1.23;;;1.00;;
27744;SDS011;61387;48.112;8.616;2023-03-16T09:20:11;1.57;;;1.17;;
27744;SDS011;61387;48.112;8.616;2023-03-16T09:22:39;1.83;;;1.10;;
27744;SDS011;61387;48.112;8.616;2023-03-16T09:25:06;2.93;;;1.33;;
27744;SDS011;61387;48.112;8.616;2023-03-16T09:27:34;4.57;;;1.50;;
27744;SDS011;61387;48.112;8.616;2023-03-16T09:30:03;3.20;;;1.43;;
27744;SDS011;61387;48.112;8.616;2023-03-16T09:32:29;2.10;;;1.50;;
27744;SDS011;61387;48.112;8.616;2023-03-16T09:34:55;2.30;;;1.40;;
27744;SDS011;61387;48.112;8.616;2023-03-16T09:37:21;7.70;;;1.83;;
27744;SDS011;61387;48.112;8.616;2023-03-16T09:39:47;6.30;;;1.83;;
27744;SDS011;61387;48.112;8.616;2023-03-16T09:42:26;2.80;;;1.63;;
27744;SDS011;61387;48.112;8.616;2023-03-16T09:47:55;4.27;;;1.80;;
27744;SDS011;61387;48.112;8.616;2023-03-16T09:50:36;3.77;;;2.00;;
27744;SDS011;61387;48.112;8.616;2023-03-16T09:53:11;2.53;;;1.50;;
27744;SDS011;61387;48.112;8.616;2023-03-16T09:56:13;2.90;;;1.63;;
27744;SDS011;61387;48.112;8.616;2023-03-16T09:58:38;1.80;;;1.53;;
27744;SDS011;61387;48.112;8.616;2023-03-16T10:01:10;2.73;;;1.70;;
27744;SDS011;61387;48.112;8.616;2023-03-16T10:04:05;4.50;;;1.80;;
27744;SDS011;61387;48.112;8.616;2023-03-16T10:06:47;3.17;;;1.63;;
27744;SDS011;61387;48.112;8.616;2023-03-16T10:09:32;3.10;;;1.73;;
27744;SDS011;61387;48.112;8.616;2023-03-16T10:12:07;5.63;;;2.07;;
27744;SDS011;61387;48.112;8.616;2023-03-16T10:19:48;3.93;;;1.90;;
27744;SDS011;61387;48.112;8.616;2023-03-16T10:27:49;5.83;;;2.10;;
27744;SDS011;61387;48.112;8.616;2023-03-16T10:30:32;2.50;;;1.50;;
27744;SDS011;61387;48.112;8.616;2023-03-16T10:33:00;2.80;;;1.70;;
27744;SDS011;61387;48.112;8.616;2023-03-16T10:38:28;3.37;;;1.30;;
27744;SDS011;61387;48.112;8.616;2023-03-16T10:40:58;6.30;;;1.80;;
27744;SDS011;61387;48.112;8.616;2023-03-16T10:43:24;3.00;;;1.57;;
27744;SDS011;61387;48.112;8.616;2023-03-16T10:45:56;3.23;;;1.83;;
27744;SDS011;61387;48.112;8.616;2023-03-16T10:48:23;2.80;;;1.70;;
27744;SDS011;61387;48.112;8.616;2023-03-16T10:50:53;1.93;;;1.30;;
27744;SDS011;61387;48.112;8.616;2023-03-16T10:53:30;2.00;;;1.40;;
27744;SDS011;61387;48.112;8.616;2023-03-16T10:56:01;4.40;;;1.40;;
27744;SDS011;61387;48.112;8.616;2023-03-16T10:58:38;4.87;;;1.27;;
27744;SDS011;61387;48.112;8.616;2023-03-16T11:01:25;1.40;;;0.90;;
27744;SDS011;61387;48.112;8.616;2023-03-16T11:03:53;0.73;;;0.73;;
27744;SDS011;61387;48.112;8.616;2023-03-16T11:06:24;2.50;;;1.13;;
27744;SDS011;61387;48.112;8.616;2023-03-16T11:08:54;3.40;;;1.40;;
27744;SDS011;61387;48.112;8.616;2023-03-16T11:11:32;1.10;;;0.90;;
27744;SDS011;61387;48.112;8.616;2023-03-16T11:13:59;1.67;;;0.90;;
27744;SDS011;61387;48.112;8.616;2023-03-16T11:18:57;2.73;;;1.00;;
27744;SDS011;61387;48.112;8.616;2023-03-16T11:21:44;2.10;;;1.00;;
27744;SDS011;61387;48.112;8.616;2023-03-16T11:24:21;2.47;;;1.00;;
27744;SDS011;61387;48.112;8.616;2023-03-16T11:27:03;2.67;;;1.10;;
27744;SDS011;61387;48.112;8.616;2023-03-16T11:29:50;2.37;;;1.40;;
27744;SDS011;61387;48.112;8.616;2023-03-16T11:32:35;1.27;;;1.00;;
27744;SDS011;61387;48.112;8.616;2023-03-16T11:35:06;2.57;;;1.30;;
27744;SDS011;61387;48.112;8.616;2023-03-16T11:37:42;4.50;;;1.17;;
27744;SDS011;61387;48.112;8.616;2023-03-16T11:43:31;2.13;;;1.17;;
27744;SDS011;61387;48.112;8.616;2023-03-16T11:46:21;1.97;;;1.30;;
27744;SDS011;61387;48.112;8.616;2023-03-16T11:54:36;3.37;;;1.30;;
27744;SDS011;61387;48.112;8.616;2023-03-16T11:57:27;3.23;;;1.30;;
27744;SDS011;61387;48.112;8.616;2023-03-16T12:00:24;2.13;;;0.90;;
27744;SDS011;61387;48.112;8.616;2023-03-16T12:11:19;2.50;;;1.10;;
27744;SDS011;61387;48.112;8.616;2023-03-16T12:14:18;6.00;;;1.20;;
27744;SDS011;61387;48.112;8.616;2023-03-16T12:16:51;2.87;;;1.10;;
27744;SDS011;61387;48.112;8.616;2023-03-16T12:22:13;2.23;;;1.40;;
27744;SDS011;61387;48.112;8.616;2023-03-16T12:24:45;3.67;;;1.27;;
27744;SDS011;61387;48.112;8.616;2023-03-16T12:27:20;2.47;;;1.40;;
27744;SDS011;61387;48.112;8.616;2023-03-16T12:30:01;4.37;;;1.60;;
27744;SDS011;61387;48.112;8.616;2023-03-16T12:32:35;3.70;;;1.50;;
27744;SDS011;61387;48.112;8.616;2023-03-16T12:35:21;3.97;;;1.90;;
27744;SDS011;61387;48.112;8.616;2023-03-16T12:38:12;2.90;;;1.63;;
27744;SDS011;61387;48.112;8.616;2023-03-16T12:40:53;2.97;;;1.77;;
27744;SDS011;61387;48.112;8.616;2023-03-16T12:43:30;2.37;;;1.60;;
27744;SDS011;61387;48.112;8.616;2023-03-16T12:46:15;3.27;;;1.63;;
27744;SDS011;61387;48.112;8.616;2023-03-16T12:48:54;2.80;;;1.33;;
27744;SDS011;61387;48.112;8.616;2023-03-16T12:51:38;2.23;;;1.40;;
27744;SDS011;61387;48.112;8.616;2023-03-16T12:54:16;2.37;;;1.47;;
27744;SDS011;61387;48.112;8.616;2023-03-16T12:56:47;2.40;;;1.63;;
27744;SDS011;61387;48.112;8.616;2023-03-16T12:59:21;2.30;;;1.37;;
27744;SDS011;61387;48.112;8.616;2023-03-16T13:01:48;2.70;;;1.43;;
27744;SDS011;61387;48.112;8.616;2023-03-16T13:04:31;2.23;;;1.40;;
27744;SDS011;61387;48.112;8.616;2023-03-16T13:07:01;2.27;;;1.33;;
27744;SDS011;61387;48.112;8.616;2023-03-16T13:09:33;2.10;;;1.03;;
27744;SDS011;61387;48.112;8.616;2023-03-16T13:12:06;4.87;;;1.53;;
27744;SDS011;61387;48.112;8.616;2023-03-16T13:14:38;2.20;;;1.30;;
27744;SDS011;61387;48.112;8.616;2023-03-16T13:19:40;2.20;;;1.50;;
27744;SDS011;61387;48.112;8.616;2023-03-16T13:27:31;7.03;;;3.70;;
27744;SDS011;61387;48.112;8.616;2023-03-16T13:29:59;2.53;;;1.53;;
27744;SDS011;61387;48.112;8.616;2023-03-16T13:32:37;3.40;;;1.30;;
27744;SDS011;61387;48.112;8.616;2023-03-16T13:35:04;1.87;;;1.30;;
27744;SDS011;61387;48.112;8.616;2023-03-16T13:37:33;3.47;;;1.30;;
27744;SDS011;61387;48.112;8.616;2023-03-16T13:40:00;2.80;;;1.37;;
27744;SDS011;61387;48.112;8.616;2023-03-16T13:42:29;3.00;;;1.60;;
27744;SDS011;61387;48.112;8.616;2023-03-16T13:44:56;4.40;;;1.53;;
27744;SDS011;61387;48.112;8.616;2023-03-16T13:47:24;2.40;;;1.50;;
27744;SDS011;61387;48.112;8.616;2023-03-16T13:49:55;3.53;;;1.53;;
27744;SDS011;61387;48.112;8.616;2023-03-16T13:52:27;3.83;;;1.57;;
27744;SDS011;61387;48.112;8.616;2023-03-16T13:54:53;2.37;;;1.60;;
27744;SDS011;61387;48.112;8.616;2023-03-16T13:57:27;3.87;;;1.57;;
27744;SDS011;61387;48.112;8.616;2023-03-16T14:02:44;3.43;;;1.40;;
27744;SDS011;61387;48.112;8.616;2023-03-16T14:05:46;1.87;;;1.50;;
27744;SDS011;61387;48.112;8.616;2023-03-16T14:08:11;2.57;;;1.73;;
27744;SDS011;61387;48.112;8.616;2023-03-16T14:10:42;2.33;;;1.70;;
27744;SDS011;61387;48.112;8.616;2023-03-16T14:13:21;2.90;;;1.67;;
27744;SDS011;61387;48.112;8.616;2023-03-16T14:15:47;3.97;;;1.67;;
27744;SDS011;61387;48.112;8.616;2023-03-16T14:18:15;2.70;;;1.40;;
27744;SDS011;61387;48.112;8.616;2023-03-16T14:20:46;3.37;;;1.77;;
27744;SDS011;61387;48.112;8.616;2023-03-16T14:23:20;5.17;;;1.77;;
27744;SDS011;61387;48.112;8.616;2023-03-16T14:26:02;3.03;;;1.70;;
27744;SDS011;61387;48.112;8.616;2023-03-16T14:28:32;3.00;;;1.77;;
27744;SDS011;61387;48.112;8.616;2023-03-16T14:31:05;2.87;;;1.90;;
27744;SDS011;61387;48.112;8.616;2023-03-16T14:33:35;3.60;;;1.63;;
27744;SDS011;61387;48.112;8.616;2023-03-16T14:36:14;2.37;;;1.60;;
27744;SDS011;61387;48.112;8.616;2023-03-16T14:38:42;4.43;;;1.43;;
27744;SDS011;61387;48.112;8.616;2023-03-16T14:41:23;3.10;;;1.60;;
27744;SDS011;61387;48.112;8.616;2023-03-16T14:43:51;4.23;;;1.80;;
27744;SDS011;61387;48.112;8.616;2023-03-16T14:48:57;3.73;;;1.80;;
27744;SDS011;61387;48.112;8.616;2023-03-16T14:51:30;5.67;;;1.93;;
27744;SDS011;61387;48.112;8.616;2023-03-16T14:53:56;5.33;;;2.30;;
27744;SDS011;61387;48.112;8.616;2023-03-16T14:56:22;4.97;;;1.97;;
27744;SDS011;61387;48.112;8.616;2023-03-16T14:58:47;3.20;;;1.73;;
27744;SDS011;61387;48.112;8.616;2023-03-16T15:01:13;2.77;;;1.47;;
27744;SDS011;61387;48.112;8.616;2023-03-16T15:03:41;3.37;;;1.70;;
27744;SDS011;61387;48.112;8.616;2023-03-16T15:06:08;2.67;;;1.30;;
27744;SDS011;61387;48.112;8.616;2023-03-16T15:08:34;2.80;;;1.60;;
27744;SDS011;61387;48.112;8.616;2023-03-16T15:11:07;3.67;;;1.57;;
27744;SDS011;61387;48.112;8.616;2023-03-16T15:13:33;5.40;;;2.10;;
27744;SDS011;61387;48.112;8.616;2023-03-16T15:16:19;3.87;;;1.90;;
27744;SDS011;61387;48.112;8.616;2023-03-16T15:18:46;2.73;;;1.60;;
27744;SDS011;61387;48.112;8.616;2023-03-16T15:21:12;3.00;;;1.63;;
27744;SDS011;61387;48.112;8.616;2023-03-16T15:23:44;2.83;;;1.83;;
27744;SDS011;61387;48.112;8.616;2023-03-16T15:26:10;4.57;;;1.93;;
27744;SDS011;61387;48.112;8.616;2023-03-16T15:28:42;4.97;;;1.70;;
27744;SDS011;61387;48.112;8.616;2023-03-16T15:31:12;2.80;;;1.60;;
27744;SDS011;61387;48.112;8.616;2023-03-16T15:33:40;3.27;;;1.63;;
27744;SDS011;61387;48.112;8.616;2023-03-16T15:36:12;6.43;;;2.23;;
27744;SDS011;61387;48.112;8.616;2023-03-16T15:38:43;4.73;;;2.53;;
27744;SDS011;61387;48.112;8.616;2023-03-16T15:41:11;3.13;;;1.77;;
27744;SDS011;61387;48.112;8.616;2023-03-16T15:43:38;5.13;;;2.27;;
27744;SDS011;61387;48.112;8.616;2023-03-16T15:46:03;3.00;;;1.73;;
27744;SDS011;61387;48.112;8.616;2023-03-16T15:48:30;4.63;;;2.43;;
27744;SDS011;61387;48.112;8.616;2023-03-16T15:50:57;3.50;;;2.23;;
27744;SDS011;61387;48.112;8.616;2023-03-16T15:53:27;4.93;;;2.13;;